Time;durP1;ratioP1;P1;durP2;ratioP2;P2;SDS_P1;SDS_P2;PMS_P1;PMS_P2;Temp;Humidity;BMP_temperature;BMP_pressure;BME280_temperature;BME280_humidity;BME280_pressure;Samples;Min_cycle;Max_cycle;Signal;HPM_P1;HPM_P2
2021/05/28 00:02:16;;;;;;;4.03;1.63;;;15.20;58.70;;;;;;5042283;28;20037;-67
2021/05/28 00:04:42;;;;;;;2.10;1.20;;;15.10;58.90;;;;;;5034233;28;20430;-67
2021/05/28 00:07:09;;;;;;;1.25;1.13;;;15.10;59.00;;;;;;5048812;28;20037;-67
2021/05/28 00:09:35;;;;;;;2.08;1.33;;;15.10;59.10;;;;;;5039538;28;20039;-67
2021/05/28 00:12:01;;;;;;;1.67;1.23;;;15.10;59.00;;;;;;5036497;28;20025;-67
2021/05/28 00:14:27;;;;;;;3.40;1.30;;;15.10;59.10;;;;;;5037784;28;20029;-67
2021/05/28 00:16:54;;;;;;;2.33;1.60;;;15.10;59.10;;;;;;5049681;28;20052;-67
2021/05/28 00:19:20;;;;;;;2.20;1.10;;;15.10;59.20;;;;;;5035824;28;20418;-67
2021/05/28 00:21:46;;;;;;;2.83;1.55;;;15.10;59.20;;;;;;5031692;28;20095;-67
2021/05/28 00:24:11;;;;;;;2.38;1.42;;;15.10;59.30;;;;;;5033889;28;20066;-67
2021/05/28 00:26:37;;;;;;;3.92;1.10;;;15.10;59.20;;;;;;5042286;28;20498;-67
2021/05/28 00:29:04;;;;;;;1.70;1.15;;;15.00;59.20;;;;;;5051451;28;20406;-66
2021/05/28 00:31:30;;;;;;;1.65;1.30;;;15.10;59.20;;;;;;5018637;28;20026;-67
2021/05/28 00:33:55;;;;;;;1.13;1.02;;;15.00;59.10;;;;;;5040584;28;20390;-67
2021/05/28 00:36:22;;;;;;;1.13;1.02;;;15.00;59.20;;;;;;5035213;28;20037;-67
2021/05/28 00:38:47;;;;;;;1.63;1.45;;;15.00;59.20;;;;;;5042120;28;20531;-67
2021/05/28 00:41:14;;;;;;;2.38;1.30;;;15.00;59.20;;;;;;5049099;28;20103;-67
2021/05/28 00:43:40;;;;;;;3.15;1.35;;;15.00;59.20;;;;;;5039749;28;20017;-67
2021/05/28 00:46:05;;;;;;;1.67;1.17;;;15.00;59.30;;;;;;5044357;28;20032;-67
2021/05/28 00:48:31;;;;;;;1.20;1.10;;;15.00;59.20;;;;;;5041901;28;20033;-67
2021/05/28 00:50:57;;;;;;;1.60;1.35;;;15.00;59.20;;;;;;5045828;28;20021;-67
2021/05/28 00:53:24;;;;;;;4.07;2.08;;;15.00;59.20;;;;;;5037859;28;20049;-67
2021/05/28 00:55:50;;;;;;;1.40;1.10;;;15.00;59.50;;;;;;5030068;28;20057;-67
2021/05/28 00:58:17;;;;;;;1.20;1.10;;;15.00;59.50;;;;;;5044364;28;20033;-67
2021/05/28 01:00:43;;;;;;;2.75;1.40;;;15.00;59.40;;;;;;5041667;28;20017;-67
2021/05/28 01:03:09;;;;;;;3.45;1.17;;;15.00;59.50;;;;;;5043713;28;20026;-68
2021/05/28 01:05:35;;;;;;;1.88;1.35;;;15.00;59.50;;;;;;5027068;28;20024;-67
2021/05/28 01:08:01;;;;;;;1.48;1.27;;;15.00;59.50;;;;;;5030134;28;20641;-67
2021/05/28 01:10:27;;;;;;;2.05;1.30;;;15.00;59.50;;;;;;5032059;28;20562;-67
2021/05/28 01:13:05;;;;;;;2.20;1.73;;;15.00;59.50;;;;;;5029610;28;20479;-68
2021/05/28 01:15:31;;;;;;;4.22;1.45;;;14.90;59.60;;;;;;5018176;28;20479;-67
2021/05/28 01:17:57;;;;;;;1.67;1.50;;;15.00;59.50;;;;;;5013365;28;20037;-67
2021/05/28 01:20:23;;;;;;;1.38;1.10;;;15.00;59.60;;;;;;5013225;28;20026;-67
2021/05/28 01:22:49;;;;;;;2.85;1.30;;;15.00;59.50;;;;;;5014527;28;20030;-68
2021/05/28 01:25:15;;;;;;;1.95;1.23;;;15.00;59.50;;;;;;5030148;28;20033;-67
2021/05/28 01:27:40;;;;;;;1.83;1.42;;;15.00;59.60;;;;;;5033392;28;20641;-67
2021/05/28 01:30:07;;;;;;;3.67;1.30;;;15.00;59.70;;;;;;5022010;28;20156;-67
2021/05/28 01:32:33;;;;;;;1.80;1.30;;;14.90;59.60;;;;;;5021409;28;20061;-67
2021/05/28 01:34:59;;;;;;;3.63;1.42;;;14.90;59.60;;;;;;5034171;28;20057;-67
2021/05/28 01:37:25;;;;;;;1.30;1.15;;;14.90;59.60;;;;;;5025302;28;20032;-67
2021/05/28 01:39:52;;;;;;;1.42;1.30;;;14.90;59.60;;;;;;5029667;28;20026;-68
2021/05/28 01:42:19;;;;;;;1.73;1.38;;;14.90;59.60;;;;;;5014381;28;20026;-67
2021/05/28 01:44:45;;;;;;;3.03;1.73;;;14.90;59.60;;;;;;5017970;28;20406;-68
2021/05/28 01:47:12;;;;;;;1.77;1.38;;;14.90;59.70;;;;;;5030440;28;20053;-67
2021/05/28 01:49:40;;;;;;;2.28;1.50;;;14.90;59.80;;;;;;5013390;28;20034;-67
2021/05/28 01:52:07;;;;;;;1.73;1.30;;;14.90;59.80;;;;;;5012693;28;20472;-67
2021/05/28 01:54:34;;;;;;;1.63;1.30;;;14.80;59.80;;;;;;5013933;28;20109;-67
2021/05/28 01:57:03;;;;;;;1.85;1.27;;;14.80;59.80;;;;;;5014005;28;20030;-67
2021/05/28 01:59:29;;;;;;;4.45;1.67;;;14.80;59.90;;;;;;5023435;28;20113;-67
2021/05/28 02:01:55;;;;;;;1.88;1.38;;;14.80;60.00;;;;;;5013957;28;20105;-67
2021/05/28 02:04:22;;;;;;;3.05;1.70;;;14.80;60.10;;;;;;5013921;28;20018;-67
2021/05/28 02:06:49;;;;;;;4.35;2.10;;;14.80;60.10;;;;;;5013906;28;20076;-67
2021/05/28 02:09:16;;;;;;;1.90;1.13;;;14.80;60.10;;;;;;5014054;28;20093;-67
2021/05/28 02:11:41;;;;;;;1.40;1.30;;;14.80;60.20;;;;;;5013748;28;20053;-67
2021/05/28 02:14:07;;;;;;;2.45;1.48;;;14.80;60.10;;;;;;5013733;28;20527;-68
2021/05/28 02:16:33;;;;;;;1.52;1.33;;;14.70;60.00;;;;;;5030858;28;20029;-67
2021/05/28 02:19:00;;;;;;;2.28;1.35;;;14.70;60.20;;;;;;5015409;28;20022;-67
2021/05/28 02:21:28;;;;;;;2.78;1.65;;;14.70;60.40;;;;;;5013702;28;20022;-67
2021/05/28 02:23:54;;;;;;;7.70;1.63;;;14.70;60.40;;;;;;5013643;28;20476;-67
2021/05/28 02:26:19;;;;;;;2.90;1.60;;;14.70;60.60;;;;;;5013458;28;20117;-68
2021/05/28 02:28:45;;;;;;;2.22;1.92;;;14.70;60.50;;;;;;5013588;28;20030;-67
2021/05/28 02:31:11;;;;;;;2.55;1.65;;;14.70;60.50;;;;;;5013267;28;20124;-67
2021/05/28 02:33:37;;;;;;;3.15;1.73;;;14.70;60.60;;;;;;5013276;28;20487;-67
2021/05/28 02:36:05;;;;;;;2.80;1.92;;;14.70;60.70;;;;;;5018717;28;20052;-67
2021/05/28 02:38:31;;;;;;;3.67;2.00;;;14.60;60.80;;;;;;5022748;28;20250;-67
2021/05/28 02:40:56;;;;;;;2.97;1.90;;;14.60;60.80;;;;;;5016709;28;20025;-66
2021/05/28 02:43:23;;;;;;;2.45;1.85;;;14.60;61.00;;;;;;5023163;28;20047;-67
2021/05/28 02:45:49;;;;;;;2.65;1.80;;;14.60;60.90;;;;;;5020136;28;20053;-67
2021/05/28 02:48:15;;;;;;;5.38;2.20;;;14.60;61.00;;;;;;5029813;28;20491;-67
2021/05/28 02:50:41;;;;;;;3.17;2.08;;;14.60;61.10;;;;;;5014403;28;20053;-67
2021/05/28 02:53:07;;;;;;;2.03;1.65;;;14.60;61.10;;;;;;5013290;28;20046;-67
2021/05/28 02:55:33;;;;;;;2.08;1.80;;;14.60;61.20;;;;;;5013115;28;20029;-67
2021/05/28 02:57:59;;;;;;;3.38;2.00;;;14.60;61.30;;;;;;5013226;28;20365;-68
2021/05/28 03:00:25;;;;;;;3.50;1.80;;;14.60;61.30;;;;;;5015543;28;20029;-66
2021/05/28 03:02:51;;;;;;;3.15;1.98;;;14.60;61.40;;;;;;5032283;28;20030;-67
2021/05/28 03:05:17;;;;;;;3.20;2.28;;;14.60;61.40;;;;;;5036685;28;20116;-67
2021/05/28 03:07:43;;;;;;;2.50;2.03;;;14.60;61.30;;;;;;5036744;28;20029;-68
2021/05/28 03:10:11;;;;;;;8.80;2.20;;;14.60;61.30;;;;;;5018081;28;20025;-67
2021/05/28 03:12:37;;;;;;;3.47;2.20;;;14.60;61.20;;;;;;5015782;28;20428;-67
2021/05/28 03:15:04;;;;;;;2.45;2.00;;;14.60;61.20;;;;;;5020970;28;20036;-67
2021/05/28 03:17:30;;;;;;;2.05;1.80;;;14.60;61.30;;;;;;5036482;28;20083;-67
2021/05/28 03:19:57;;;;;;;2.80;1.90;;;14.60;61.30;;;;;;5036740;28;20018;-67
2021/05/28 03:22:32;;;;;;;4.82;2.03;;;14.60;61.50;;;;;;5036654;28;20017;-67
2021/05/28 03:25:07;;;;;;;1.90;1.70;;;14.60;61.40;;;;;;5036602;28;20026;-67
2021/05/28 03:27:33;;;;;;;2.10;1.80;;;14.60;61.50;;;;;;5036582;28;20033;-67
2021/05/28 03:29:59;;;;;;;5.43;1.90;;;14.60;61.50;;;;;;5025612;28;20029;-68
2021/05/28 03:32:26;;;;;;;1.95;1.58;;;14.50;61.50;;;;;;5016617;28;20101;-67
2021/05/28 03:34:53;;;;;;;3.15;2.17;;;14.50;61.50;;;;;;5016882;28;20041;-67
2021/05/28 03:37:19;;;;;;;5.32;1.90;;;14.50;61.70;;;;;;5015404;28;20048;-67
2021/05/28 03:39:49;;;;;;;2.55;2.03;;;14.50;61.50;;;;;;5016584;28;20022;-67
2021/05/28 03:42:15;;;;;;;5.22;2.05;;;14.60;61.70;;;;;;5016206;28;20018;-67
2021/05/28 03:44:40;;;;;;;3.85;1.80;;;14.60;61.60;;;;;;5019177;28;20056;-67
2021/05/28 03:47:06;;;;;;;4.07;1.85;;;14.60;61.50;;;;;;5016188;28;20030;-67
2021/05/28 03:49:32;;;;;;;2.55;1.80;;;14.60;61.60;;;;;;5016180;28;20332;-67
2021/05/28 03:51:58;;;;;;;3.28;2.30;;;14.60;61.60;;;;;;5016188;28;20492;-67
2021/05/28 03:54:24;;;;;;;3.45;2.55;;;14.60;61.60;;;;;;5016244;28;20066;-67
2021/05/28 03:56:50;;;;;;;3.05;2.22;;;14.60;61.60;;;;;;5016246;28;20026;-67
2021/05/28 03:59:16;;;;;;;4.15;2.67;;;14.60;61.50;;;;;;5016055;28;20076;-67
2021/05/28 04:01:42;;;;;;;2.40;2.05;;;14.60;61.50;;;;;;5021532;28;20075;-68
2021/05/28 04:04:08;;;;;;;3.17;2.30;;;14.60;61.50;;;;;;5035732;28;20386;-67
2021/05/28 04:06:34;;;;;;;2.15;1.95;;;14.70;61.60;;;;;;5035819;28;20057;-67
2021/05/28 04:08:59;;;;;;;2.88;2.63;;;14.70;61.40;;;;;;5035819;28;20511;-67
2021/05/28 04:11:25;;;;;;;2.30;1.83;;;14.80;61.50;;;;;;5034824;28;20028;-68
2021/05/28 04:13:51;;;;;;;2.88;2.13;;;14.80;61.30;;;;;;5033595;28;20498;-67
2021/05/28 04:16:17;;;;;;;3.17;2.25;;;14.80;61.20;;;;;;5016025;28;20041;-67
2021/05/28 04:18:43;;;;;;;4.93;2.05;;;14.90;61.20;;;;;;5015607;28;20026;-67
2021/05/28 04:21:09;;;;;;;5.90;2.72;;;15.00;61.10;;;;;;5015828;28;20105;-67
2021/05/28 04:23:35;;;;;;;3.88;2.80;;;15.00;61.00;;;;;;5015671;28;20029;-67
2021/05/28 04:26:01;;;;;;;4.57;3.00;;;15.00;61.00;;;;;;5015570;28;20038;-67
2021/05/28 04:28:30;;;;;;;4.25;3.03;;;15.10;61.00;;;;;;5015653;28;20404;-67
2021/05/28 04:30:56;;;;;;;4.22;2.97;;;15.10;61.00;;;;;;5015414;28;20057;-67
2021/05/28 04:33:23;;;;;;;4.35;3.05;;;15.20;61.00;;;;;;5015406;28;20391;-68
2021/05/28 04:35:49;;;;;;;10.88;3.83;;;15.10;60.90;;;;;;5025691;28;20486;-67
2021/05/28 04:38:15;;;;;;;9.85;3.70;;;15.20;61.00;;;;;;5021306;28;20029;-67
2021/05/28 04:40:41;;;;;;;10.15;4.07;;;15.20;60.80;;;;;;5020952;28;20034;-67
2021/05/28 04:43:06;;;;;;;7.38;3.55;;;15.30;60.80;;;;;;5013405;28;20025;-68
2021/05/28 04:45:32;;;;;;;7.18;4.00;;;15.40;60.70;;;;;;5015478;28;20022;-67
2021/05/28 04:47:58;;;;;;;8.40;4.78;;;15.40;60.60;;;;;;5015168;28;20025;-67
2021/05/28 04:50:35;;;;;;;9.02;4.38;;;15.50;60.60;;;;;;5015106;28;20026;-67
2021/05/28 04:53:02;;;;;;;6.85;3.63;;;15.60;60.50;;;;;;5014985;28;20049;-67
2021/05/28 04:55:29;;;;;;;7.85;3.55;;;15.60;60.60;;;;;;5015774;28;20096;-67
2021/05/28 04:57:55;;;;;;;9.88;3.53;;;15.70;60.30;;;;;;5025069;28;20048;-67
2021/05/28 05:00:22;;;;;;;3.95;2.95;;;15.80;60.30;;;;;;5015051;28;20058;-67
2021/05/28 05:02:48;;;;;;;3.50;3.03;;;15.80;60.10;;;;;;5027957;28;20028;-67
2021/05/28 05:05:16;;;;;;;5.95;3.58;;;15.90;60.10;;;;;;5034674;28;20025;-68
2021/05/28 05:07:42;;;;;;;3.40;2.88;;;16.00;59.90;;;;;;5040835;28;20124;-67
2021/05/28 05:10:09;;;;;;;5.72;3.10;;;16.00;59.80;;;;;;5053593;28;20537;-67
2021/05/28 05:12:35;;;;;;;7.00;2.92;;;16.10;59.70;;;;;;5053384;28;20025;-67
2021/05/28 05:15:01;;;;;;;5.70;3.55;;;16.20;59.60;;;;;;5031307;28;20041;-68
2021/05/28 05:17:27;;;;;;;5.53;3.42;;;16.20;59.50;;;;;;5014677;28;20033;-67
2021/05/28 05:19:53;;;;;;;8.95;2.78;;;16.30;59.30;;;;;;5014767;28;20025;-67
2021/05/28 05:22:18;;;;;;;6.25;3.40;;;16.40;59.30;;;;;;5014600;28;20026;-67
2021/05/28 05:24:44;;;;;;;6.50;2.92;;;16.40;59.10;;;;;;5025453;28;20108;-67
2021/05/28 05:27:10;;;;;;;7.28;3.35;;;16.50;59.10;;;;;;5034391;28;20025;-68
2021/05/28 05:29:36;;;;;;;4.05;2.60;;;16.60;58.90;;;;;;5027621;28;20104;-67
2021/05/28 05:32:02;;;;;;;11.20;3.45;;;16.70;58.90;;;;;;5014241;28;20037;-67
2021/05/28 05:34:28;;;;;;;4.78;2.80;;;16.80;58.90;;;;;;5014051;28;20022;-67
2021/05/28 05:36:55;;;;;;;4.38;3.00;;;16.80;58.70;;;;;;5027446;28;20483;-67
2021/05/28 05:39:23;;;;;;;5.43;3.10;;;16.90;58.50;;;;;;5031824;28;20080;-67
2021/05/28 05:41:49;;;;;;;3.72;3.05;;;17.00;58.30;;;;;;5026470;28;20361;-67
2021/05/28 05:44:15;;;;;;;5.65;2.90;;;17.10;58.00;;;;;;5025723;28;20087;-68
2021/05/28 05:46:41;;;;;;;3.70;2.67;;;17.10;57.70;;;;;;5024983;28;20506;-67
2021/05/28 05:49:07;;;;;;;4.15;3.28;;;17.20;57.80;;;;;;5017460;28;20029;-67
2021/05/28 05:51:32;;;;;;;6.40;3.47;;;17.30;57.50;;;;;;5013124;28;20038;-67
2021/05/28 05:53:58;;;;;;;3.28;2.78;;;17.30;57.20;;;;;;5012944;28;20042;-67
2021/05/28 05:56:25;;;;;;;3.22;2.70;;;17.40;57.20;;;;;;5013159;28;20079;-67
2021/05/28 05:58:51;;;;;;;6.13;3.50;;;17.50;57.30;;;;;;5025582;28;20411;-67
2021/05/28 06:01:17;;;;;;;6.20;3.17;;;17.60;57.00;;;;;;5032647;28;20491;-67
2021/05/28 06:03:43;;;;;;;7.65;3.28;;;17.70;56.90;;;;;;5032809;28;20104;-67
2021/05/28 06:06:09;;;;;;;3.50;2.80;;;17.80;56.70;;;;;;5032668;28;20490;-67
2021/05/28 06:08:34;;;;;;;4.55;3.38;;;17.90;56.40;;;;;;5022183;28;20034;-68
2021/05/28 06:11:00;;;;;;;3.70;2.92;;;17.90;55.90;;;;;;5012838;28;20026;-66
2021/05/28 06:13:26;;;;;;;4.22;2.88;;;18.00;55.80;;;;;;5012877;28;20054;-67
2021/05/28 06:15:52;;;;;;;3.10;2.80;;;18.10;55.70;;;;;;5012726;28;20033;-67
2021/05/28 06:18:18;;;;;;;14.65;3.33;;;18.20;55.80;;;;;;5020374;28;20021;-68
2021/05/28 06:20:44;;;;;;;4.60;3.47;;;18.30;56.00;;;;;;5032620;28;20487;-68
2021/05/28 06:23:11;;;;;;;5.53;3.20;;;18.40;55.90;;;;;;5032204;28;20033;-67
2021/05/28 06:25:40;;;;;;;6.60;3.72;;;18.50;55.40;;;;;;5032478;28;20048;-67
2021/05/28 06:28:07;;;;;;;4.55;3.15;;;18.60;54.80;;;;;;5028166;28;20053;-67
2021/05/28 06:30:33;;;;;;;4.63;3.00;;;18.60;55.30;;;;;;5012541;28;20025;-68
2021/05/28 06:33:05;;;;;;;3.85;3.03;;;18.70;54.60;;;;;;5014800;28;20029;-67
2021/05/28 06:35:31;;;;;;;5.45;2.75;;;18.80;54.60;;;;;;5029562;28;20021;-67
2021/05/28 06:37:57;;;;;;;6.63;2.85;;;18.80;54.60;;;;;;5027812;28;20018;-68
2021/05/28 06:40:23;;;;;;;5.00;3.10;;;18.90;54.40;;;;;;5012460;28;20148;-68
2021/05/28 06:42:49;;;;;;;4.45;3.05;;;18.90;54.50;;;;;;5012426;28;20101;-68
2021/05/28 06:45:17;;;;;;;3.10;2.78;;;19.10;54.10;;;;;;5012786;28;20036;-68
2021/05/28 06:47:43;;;;;;;8.13;2.90;;;19.20;53.90;;;;;;5013930;28;20387;-68
2021/05/28 06:50:09;;;;;;;3.50;2.60;;;19.20;53.30;;;;;;5029080;28;20533;-67
2021/05/28 06:52:35;;;;;;;4.05;2.75;;;19.30;52.70;;;;;;5011890;28;20049;-67
2021/05/28 06:55:01;;;;;;;5.95;2.72;;;19.30;52.30;;;;;;5010707;28;20087;-67
2021/05/28 06:57:27;;;;;;;5.13;3.10;;;19.30;52.40;;;;;;5012226;28;20026;-68
2021/05/28 06:59:53;;;;;;;2.75;2.45;;;19.40;51.80;;;;;;5031936;28;20026;-67
2021/05/28 07:02:18;;;;;;;3.17;2.65;;;19.40;52.30;;;;;;5030208;28;20018;-67
2021/05/28 07:04:44;;;;;;;5.13;2.50;;;19.50;51.90;;;;;;5032501;28;20029;-67
2021/05/28 07:07:10;;;;;;;4.93;2.90;;;19.50;51.50;;;;;;5031874;28;20025;-67
2021/05/28 07:09:36;;;;;;;5.53;3.30;;;19.50;51.30;;;;;;5031491;28;20032;-67
2021/05/28 07:12:02;;;;;;;7.60;3.00;;;19.50;50.80;;;;;;5031164;28;20034;-68
2021/05/28 07:14:28;;;;;;;4.03;3.10;;;19.40;50.60;;;;;;5015623;28;20014;-67
2021/05/28 07:16:54;;;;;;;5.40;2.75;;;19.30;50.20;;;;;;5011991;28;20042;-67
2021/05/28 07:19:19;;;;;;;2.92;2.22;;;19.30;50.80;;;;;;5011867;28;20415;-67
2021/05/28 07:21:45;;;;;;;3.13;2.70;;;19.20;50.90;;;;;;5011760;28;20101;-67
2021/05/28 07:24:11;;;;;;;3.63;2.85;;;19.20;50.70;;;;;;5011382;28;20506;-65
2021/05/28 07:26:37;;;;;;;5.38;3.25;;;19.20;50.50;;;;;;5011716;28;20034;-69
2021/05/28 07:29:03;;;;;;;4.97;2.80;;;19.10;50.40;;;;;;5025438;28;20029;-66
2021/05/28 07:31:29;;;;;;;3.53;2.50;;;19.00;50.70;;;;;;5018825;28;20042;-66
2021/05/28 07:33:55;;;;;;;4.13;3.15;;;18.90;51.10;;;;;;5010256;28;20037;-66
2021/05/28 07:36:23;;;;;;;7.95;3.22;;;18.90;50.80;;;;;;5027447;28;20036;-66
2021/05/28 07:38:49;;;;;;;4.72;3.20;;;18.80;50.70;;;;;;5017372;28;20022;-69
2021/05/28 07:41:15;;;;;;;3.47;2.75;;;18.70;51.00;;;;;;5014905;28;20611;-67
2021/05/28 07:43:41;;;;;;;4.15;2.78;;;18.70;50.70;;;;;;5020908;28;20065;-66
2021/05/28 07:46:07;;;;;;;3.90;2.97;;;18.70;51.20;;;;;;5010589;28;20030;-66
2021/05/28 07:48:32;;;;;;;4.10;3.08;;;18.70;51.10;;;;;;5015068;28;20600;-66
2021/05/28 07:50:58;;;;;;;4.45;3.42;;;18.70;51.00;;;;;;5034845;28;20116;-66
2021/05/28 07:53:26;;;;;;;4.13;2.75;;;18.70;50.70;;;;;;5024448;28;20053;-66
2021/05/28 07:56:04;;;;;;;3.60;2.70;;;18.80;50.30;;;;;;5024876;28;20025;-67
2021/05/28 07:58:31;;;;;;;3.17;2.63;;;18.80;50.40;;;;;;5024814;28;20026;-66
2021/05/28 08:00:57;;;;;;;3.13;2.72;;;19.00;50.90;;;;;;5017133;28;20034;-66
2021/05/28 08:03:23;;;;;;;6.03;3.08;;;19.20;50.40;;;;;;5027268;28;20029;-67
2021/05/28 08:05:51;;;;;;;4.47;3.17;;;19.40;50.40;;;;;;5014912;28;20030;-66
2021/05/28 08:08:17;;;;;;;6.03;3.17;;;19.70;48.70;;;;;;5019386;28;20030;-67
2021/05/28 08:10:44;;;;;;;5.03;2.72;;;19.90;48.40;;;;;;5026054;28;20024;-67
2021/05/28 08:13:09;;;;;;;8.02;2.97;;;20.10;47.00;;;;;;5014711;28;20026;-66
2021/05/28 08:15:35;;;;;;;6.90;3.28;;;20.30;47.10;;;;;;5038501;28;20032;-66
2021/05/28 08:18:01;;;;;;;3.75;2.50;;;20.50;46.50;;;;;;5044989;28;20498;-67
2021/05/28 08:20:28;;;;;;;4.82;2.25;;;20.70;46.20;;;;;;5031444;28;20037;-66
2021/05/28 08:22:54;;;;;;;7.20;2.40;;;20.90;46.70;;;;;;5023203;28;20021;-66
2021/05/28 08:25:20;;;;;;;4.68;2.92;;;21.10;46.20;;;;;;5016965;28;20065;-66
2021/05/28 08:27:46;;;;;;;4.30;2.30;;;21.30;45.40;;;;;;5027325;28;20021;-66
2021/05/28 08:30:14;;;;;;;3.50;2.35;;;21.50;45.20;;;;;;5015199;28;20030;-66
2021/05/28 08:32:41;;;;;;;4.50;2.58;;;21.60;45.00;;;;;;5022906;28;20470;-66
2021/05/28 08:35:07;;;;;;;2.67;2.15;;;21.80;44.80;;;;;;5034271;28;20128;-66
2021/05/28 08:37:34;;;;;;;5.00;2.95;;;22.00;44.60;;;;;;5032718;28;20032;-66
2021/05/28 08:40:00;;;;;;;4.03;2.25;;;22.10;43.70;;;;;;5026180;28;20475;-67
2021/05/28 08:42:29;;;;;;;3.05;2.20;;;22.20;44.20;;;;;;5021087;28;20022;-66
2021/05/28 08:44:56;;;;;;;3.28;2.30;;;22.40;43.30;;;;;;5013430;28;20399;-67
2021/05/28 08:47:23;;;;;;;4.30;2.33;;;22.50;43.30;;;;;;5013694;28;20037;-66
2021/05/28 08:49:53;;;;;;;3.80;2.25;;;22.60;42.80;;;;;;5014306;28;20036;-66
2021/05/28 08:52:20;;;;;;;10.30;2.55;;;22.60;42.20;;;;;;5012511;28;20125;-67
2021/05/28 08:54:47;;;;;;;6.22;2.33;;;22.70;41.60;;;;;;5013993;28;20032;-66
2021/05/28 08:57:13;;;;;;;4.82;2.47;;;22.70;41.60;;;;;;5013792;28;20024;-67
2021/05/28 08:59:39;;;;;;;4.97;3.03;;;22.80;41.50;;;;;;5013897;28;20125;-66
2021/05/28 09:02:35;;;;;;;4.75;2.47;;;22.90;41.90;;;;;;5013676;28;20464;-67
2021/05/28 09:05:11;;;;;;;9.57;2.90;;;23.00;42.10;;;;;;5014065;28;20026;-66
2021/05/28 09:07:38;;;;;;;4.07;2.50;;;23.10;40.10;;;;;;5013940;28;20030;-67
2021/05/28 09:10:29;;;;;;;4.22;2.47;;;23.10;40.00;;;;;;5013793;28;20025;-67
2021/05/28 09:13:05;;;;;;;2.67;2.40;;;23.00;40.20;;;;;;5028909;28;20026;-66
2021/05/28 09:15:30;;;;;;;5.50;2.45;;;22.90;39.90;;;;;;5025723;28;20033;-67
2021/05/28 09:17:57;;;;;;;3.03;2.30;;;22.90;40.30;;;;;;5019047;28;20030;-66
2021/05/28 09:20:23;;;;;;;2.45;1.90;;;22.80;40.00;;;;;;5013073;28;20022;-67
2021/05/28 09:23:12;;;;;;;3.83;2.22;;;22.70;40.20;;;;;;5017808;28;20030;-67
2021/05/28 09:25:55;;;;;;;4.97;2.00;;;22.70;40.80;;;;;;5033118;28;20054;-66
2021/05/28 09:28:21;;;;;;;3.63;1.80;;;22.70;40.30;;;;;;5031583;28;20442;-67
2021/05/28 09:30:58;;;;;;;3.08;1.90;;;22.60;39.30;;;;;;5024121;28;20030;-66
2021/05/28 09:33:26;;;;;;;4.18;1.77;;;22.60;39.90;;;;;;5011752;28;20057;-66
2021/05/28 09:35:53;;;;;;;2.58;1.70;;;22.60;40.00;;;;;;5017599;28;20041;-67
2021/05/28 09:38:25;;;;;;;3.33;2.17;;;22.50;39.80;;;;;;5025667;28;20029;-67
2021/05/28 09:40:51;;;;;;;3.53;1.67;;;22.50;40.00;;;;;;5029282;28;20030;-66
2021/05/28 09:43:25;;;;;;;2.55;1.50;;;22.50;40.40;;;;;;5030346;28;20018;-66
2021/05/28 09:45:51;;;;;;;4.07;1.83;;;22.50;39.40;;;;;;5045538;28;20029;-66
2021/05/28 09:48:31;;;;;;;1.58;1.48;;;22.50;39.10;;;;;;5038534;28;20082;-66
2021/05/28 09:51:03;;;;;;;2.42;1.40;;;22.60;39.10;;;;;;5033340;28;20483;-67
2021/05/28 09:53:41;;;;;;;3.92;1.58;;;22.70;39.40;;;;;;5016215;28;20045;-67
2021/05/28 09:56:34;;;;;;;2.47;1.85;;;22.90;39.20;;;;;;5039765;28;20113;-67
2021/05/28 09:59:04;;;;;;;2.15;1.70;;;23.00;38.10;;;;;;5034118;28;20029;-66
2021/05/28 10:01:30;;;;;;;2.60;1.60;;;23.10;36.90;;;;;;5048917;28;20467;-68
2021/05/28 10:04:07;;;;;;;2.58;1.60;;;23.00;37.20;;;;;;5030470;28;20026;-67
2021/05/28 10:06:35;;;;;;;5.75;2.45;;;23.00;37.50;;;;;;5036963;28;20021;-66
2021/05/28 10:09:06;;;;;;;2.92;1.95;;;22.90;37.30;;;;;;5036511;28;20029;-67
2021/05/28 10:11:32;;;;;;;3.83;1.83;;;22.90;37.90;;;;;;5039304;28;20048;-67
2021/05/28 10:13:59;;;;;;;5.95;2.03;;;22.80;37.60;;;;;;5039891;28;20037;-66
2021/05/28 10:16:25;;;;;;;2.53;1.90;;;22.70;38.00;;;;;;5050298;28;20509;-67
2021/05/28 10:18:57;;;;;;;1.67;1.40;;;22.70;37.70;;;;;;5046132;28;20036;-66
2021/05/28 10:21:24;;;;;;;2.05;1.35;;;22.70;38.50;;;;;;5036448;28;20018;-66
2021/05/28 10:23:50;;;;;;;2.90;1.67;;;22.70;37.80;;;;;;5045931;28;20021;-69
2021/05/28 10:26:23;;;;;;;1.83;1.40;;;22.80;37.50;;;;;;5043334;28;20108;-66
2021/05/28 10:28:49;;;;;;;2.88;2.00;;;22.90;37.10;;;;;;5023678;28;20026;-66
2021/05/28 10:31:15;;;;;;;1.55;1.45;;;23.10;37.30;;;;;;5040143;28;20033;-66
2021/05/28 10:33:54;;;;;;;2.33;1.48;;;23.20;37.30;;;;;;5052156;28;20028;-67
2021/05/28 10:36:53;;;;;;;3.38;1.90;;;23.40;37.10;;;;;;5037299;28;20048;-66
2021/05/28 10:39:23;;;;;;;1.83;1.42;;;23.60;37.10;;;;;;5050873;28;20057;-67
2021/05/28 10:42:18;;;;;;;4.45;2.20;;;23.80;36.80;;;;;;5064767;28;20037;-68
2021/05/28 10:44:45;;;;;;;3.38;1.70;;;23.90;34.60;;;;;;5037398;28;20048;-67
2021/05/28 10:47:14;;;;;;;3.28;1.70;;;23.90;35.30;;;;;;5029680;28;20121;-66
2021/05/28 10:49:44;;;;;;;4.93;1.75;;;24.00;34.80;;;;;;5048228;28;20111;-66
2021/05/28 10:52:11;;;;;;;2.90;1.58;;;23.90;35.00;;;;;;5049314;28;20175;-66
2021/05/28 10:54:40;;;;;;;2.63;1.95;;;23.90;35.30;;;;;;5030581;28;20115;-66
2021/05/28 10:57:22;;;;;;;4.07;2.47;;;23.80;35.50;;;;;;5029981;28;20111;-67
2021/05/28 10:59:51;;;;;;;1.92;1.70;;;23.60;35.80;;;;;;5026265;28;20481;-67
2021/05/28 11:02:47;;;;;;;4.22;1.88;;;23.40;36.10;;;;;;5018835;28;20407;-68
2021/05/28 11:05:14;;;;;;;2.92;1.92;;;23.20;36.60;;;;;;5030424;28;20398;-66
2021/05/28 11:07:45;;;;;;;2.72;1.80;;;23.20;36.00;;;;;;5030462;28;20497;-67
2021/05/28 11:10:25;;;;;;;1.95;1.30;;;23.20;36.90;;;;;;5030477;28;20498;-66
2021/05/28 11:12:52;;;;;;;1.65;1.52;;;23.30;36.70;;;;;;5013841;28;20036;-66
2021/05/28 11:15:27;;;;;;;3.20;1.70;;;23.40;36.50;;;;;;5000632;28;20181;-67
2021/05/28 11:17:59;;;;;;;3.95;1.60;;;23.60;35.70;;;;;;4992621;28;20019;-66
2021/05/28 11:20:26;;;;;;;2.08;1.67;;;23.70;35.80;;;;;;4995559;28;20047;-67
2021/05/28 11:22:51;;;;;;;5.50;1.70;;;23.80;36.10;;;;;;4997029;28;20030;-66
2021/05/28 11:25:19;;;;;;;2.80;1.65;;;23.90;35.10;;;;;;4996883;28;20022;-66
2021/05/28 11:27:51;;;;;;;2.15;1.90;;;24.00;34.90;;;;;;4994176;28;20030;-67
2021/05/28 11:30:16;;;;;;;4.85;1.70;;;24.10;35.00;;;;;;4996711;28;20026;-66
2021/05/28 11:32:43;;;;;;;2.50;1.70;;;24.10;34.70;;;;;;4977760;28;20034;-66
2021/05/28 11:35:26;;;;;;;3.40;1.70;;;24.10;34.00;;;;;;4978687;28;20530;-66
2021/05/28 11:38:04;;;;;;;2.03;1.48;;;24.00;34.60;;;;;;4994934;28;20029;-66
2021/05/28 11:40:30;;;;;;;3.78;2.20;;;23.90;34.20;;;;;;4996583;28;20026;-66
2021/05/28 11:43:16;;;;;;;3.83;2.22;;;23.80;33.90;;;;;;4994950;28;20088;-66
2021/05/28 11:45:53;;;;;;;3.80;2.08;;;23.60;34.90;;;;;;4986241;28;20035;-66
2021/05/28 11:48:21;;;;;;;2.03;1.40;;;23.50;35.40;;;;;;4977088;28;20022;-67
2021/05/28 11:50:51;;;;;;;3.42;2.00;;;23.50;36.00;;;;;;4976943;28;20050;-66
2021/05/28 11:53:18;;;;;;;2.05;1.65;;;23.40;35.90;;;;;;5000076;28;20053;-66
2021/05/28 11:55:53;;;;;;;3.08;1.80;;;23.40;35.70;;;;;;5015924;28;20026;-66
2021/05/28 11:58:21;;;;;;;2.08;1.42;;;23.30;35.90;;;;;;5016084;28;20530;-67
2021/05/28 12:00:52;;;;;;;4.35;1.70;;;23.50;36.20;;;;;;5015910;28;20026;-67
2021/05/28 12:03:21;;;;;;;2.63;1.50;;;23.50;35.00;;;;;;5016126;28;20056;-67
2021/05/28 12:05:48;;;;;;;1.40;1.30;;;23.60;35.00;;;;;;5015837;28;20505;-67
2021/05/28 12:08:18;;;;;;;3.13;1.42;;;23.80;35.40;;;;;;5015931;28;20129;-67
2021/05/28 12:10:55;;;;;;;2.85;1.08;;;24.00;34.20;;;;;;5015650;28;20063;-67
2021/05/28 12:13:24;;;;;;;4.93;1.30;;;24.10;34.50;;;;;;5015851;28;20052;-67
2021/05/28 12:15:51;;;;;;;1.92;1.38;;;24.40;33.60;;;;;;5014666;28;20042;-67
2021/05/28 12:18:27;;;;;;;3.08;1.00;;;24.50;33.90;;;;;;5015520;28;20062;-67
2021/05/28 12:20:58;;;;;;;2.40;1.20;;;24.80;33.70;;;;;;5015540;28;20386;-67
2021/05/28 12:23:26;;;;;;;1.70;1.13;;;25.00;31.70;;;;;;5015609;28;20054;-67
2021/05/28 12:26:11;;;;;;;2.35;1.10;;;25.10;31.90;;;;;;5019223;28;20030;-67
2021/05/28 12:28:38;;;;;;;1.48;1.10;;;25.30;32.30;;;;;;5017387;28;20080;-67
2021/05/28 12:31:21;;;;;;;2.00;1.00;;;25.50;32.40;;;;;;5033888;28;20022;-67
2021/05/28 12:33:57;;;;;;;1.63;1.40;;;25.80;31.90;;;;;;5034415;28;20036;-67
2021/05/28 12:36:31;;;;;;;2.33;0.90;;;25.90;30.80;;;;;;5034351;28;20025;-67
2021/05/28 12:38:59;;;;;;;1.73;1.10;;;26.00;31.10;;;;;;5029441;28;20018;-67
2021/05/28 12:41:31;;;;;;;3.45;1.27;;;26.10;29.60;;;;;;5015141;28;20088;-67
2021/05/28 12:43:59;;;;;;;1.15;0.98;;;26.20;30.70;;;;;;5015489;28;20049;-67
2021/05/28 12:46:34;;;;;;;5.30;1.10;;;26.30;29.70;;;;;;5025219;28;20041;-67
2021/05/28 12:49:08;;;;;;;1.55;0.98;;;26.40;29.00;;;;;;5014978;28;20026;-67
2021/05/28 12:51:49;;;;;;;2.28;1.10;;;26.40;28.80;;;;;;5015151;28;20101;-67